createdAt,value
2023-04-08T00:00:02.982Z,2.88
2023-04-08T00:02:57.429Z,2.84
2023-04-08T00:05:25.517Z,2.86
2023-04-08T00:07:52.716Z,2.78
2023-04-08T00:10:20.612Z,2.84
2023-04-08T00:12:48.544Z,2.85
2023-04-08T00:15:16.292Z,2.78
2023-04-08T00:17:43.582Z,2.74
2023-04-08T00:20:11.883Z,2.69
2023-04-08T00:22:39.049Z,2.59
2023-04-08T00:25:07.251Z,2.51
2023-04-08T00:27:34.474Z,2.49
2023-04-08T00:30:02.658Z,2.44
2023-04-08T00:32:30.165Z,2.50
2023-04-08T00:34:58.966Z,2.49
2023-04-08T00:37:26.220Z,2.48
2023-04-08T00:39:54.435Z,2.49
2023-04-08T00:42:24.375Z,2.56
2023-04-08T00:44:51.866Z,2.51
2023-04-08T00:47:19.699Z,2.63
2023-04-08T00:49:47.356Z,2.61
2023-04-08T00:52:14.506Z,2.63
2023-04-08T00:54:42.626Z,2.61
2023-04-08T00:57:09.851Z,2.49
2023-04-08T00:59:37.487Z,2.57
2023-04-08T01:02:14.007Z,2.68
2023-04-08T01:05:03.574Z,2.68
2023-04-08T01:07:51.320Z,2.63
2023-04-08T01:10:25.935Z,2.51
2023-04-08T01:13:08.730Z,2.44
2023-04-08T01:15:39.398Z,2.35
2023-04-08T01:18:15.857Z,2.43
2023-04-08T01:20:44.772Z,2.41
2023-04-08T01:23:29.426Z,2.47
2023-04-08T01:25:57.594Z,2.40
2023-04-08T01:28:28.520Z,2.47
2023-04-08T01:30:59.555Z,2.40
2023-04-08T01:33:29.173Z,2.29
2023-04-08T01:35:58.647Z,2.31
2023-04-08T01:38:26.867Z,2.26
2023-04-08T01:40:55.933Z,2.38
2023-04-08T01:43:24.852Z,2.36
2023-04-08T01:45:58.357Z,2.28
2023-04-08T01:48:26.388Z,2.35
2023-04-08T01:50:55.962Z,2.40
2023-04-08T01:53:23.629Z,2.36
2023-04-08T01:55:58.331Z,2.35
2023-04-08T01:58:33.387Z,2.41
2023-04-08T02:01:01.081Z,2.28
2023-04-08T02:03:30.457Z,2.35
2023-04-08T02:05:58.334Z,2.36
2023-04-08T02:08:25.488Z,2.35
2023-04-08T02:10:54.652Z,2.33
2023-04-08T02:13:21.843Z,2.27
2023-04-08T02:15:56.877Z,2.28
2023-04-08T02:18:29.512Z,2.26
2023-04-08T02:21:07.296Z,2.36
2023-04-08T02:23:38.801Z,2.36
2023-04-08T02:26:13.887Z,2.31
2023-04-08T02:28:42.773Z,2.36
2023-04-08T02:31:15.108Z,2.38
2023-04-08T02:33:46.872Z,2.37
2023-04-08T02:36:15.657Z,2.32
2023-04-08T02:38:42.886Z,2.27
2023-04-08T02:41:13.001Z,2.18
2023-04-08T02:43:40.168Z,2.26
2023-04-08T02:46:08.575Z,2.26
2023-04-08T02:48:37.157Z,2.22
2023-04-08T02:51:04.765Z,2.19
2023-04-08T02:53:32.000Z,2.18
2023-04-08T02:55:59.786Z,2.21
2023-04-08T02:58:26.987Z,2.23
2023-04-08T03:00:54.637Z,2.27
2023-04-08T03:03:28.035Z,2.27
2023-04-08T03:05:59.201Z,2.29
2023-04-08T03:08:26.618Z,2.23
2023-04-08T03:10:54.403Z,2.19
2023-04-08T03:13:21.647Z,2.20
2023-04-08T03:15:49.113Z,2.13
2023-04-08T03:18:16.537Z,2.12
2023-04-08T03:20:44.053Z,2.03
2023-04-08T03:23:11.296Z,2.04
2023-04-08T03:25:38.878Z,2.07
2023-04-08T03:28:06.363Z,2.03
2023-04-08T03:30:34.168Z,2.03
2023-04-08T03:33:02.931Z,1.93
2023-04-08T03:35:30.809Z,2.05
2023-04-08T03:37:57.953Z,1.97
2023-04-08T03:40:28.335Z,2.01
2023-04-08T03:42:55.598Z,2.01
2023-04-08T03:45:23.192Z,1.95
2023-04-08T03:47:50.536Z,1.97
2023-04-08T03:50:18.039Z,1.98
2023-04-08T03:52:45.313Z,1.93
2023-04-08T03:55:12.865Z,1.93
2023-04-08T03:57:40.085Z,1.89
2023-04-08T04:00:08.426Z,1.90
2023-04-08T04:02:39.597Z,1.83
2023-04-08T04:05:08.459Z,1.82
2023-04-08T04:07:35.701Z,1.87
2023-04-08T04:10:03.415Z,1.85
2023-04-08T04:12:33.795Z,1.86
2023-04-08T04:15:01.307Z,1.86
2023-04-08T04:17:28.563Z,1.83
2023-04-08T04:19:56.544Z,1.93
2023-04-08T04:22:24.712Z,1.99
2023-04-08T04:24:52.262Z,1.89
2023-04-08T04:27:19.579Z,1.92
2023-04-08T04:29:47.149Z,2.02
2023-04-08T04:32:14.643Z,2.06
2023-04-08T04:34:42.306Z,1.96
2023-04-08T04:37:09.430Z,2.11
2023-04-08T04:39:38.028Z,2.05
2023-04-08T04:42:05.393Z,2.13
2023-04-08T04:44:33.353Z,2.12
2023-04-08T04:47:00.583Z,2.20
2023-04-08T04:49:28.306Z,2.10
2023-04-08T04:51:55.856Z,2.10
2023-04-08T04:54:23.522Z,2.09
2023-04-08T04:56:50.728Z,2.06
2023-04-08T04:59:18.316Z,2.07
2023-04-08T05:01:45.778Z,2.12
2023-04-08T05:04:13.420Z,2.15
2023-04-08T05:06:40.674Z,2.18
2023-04-08T05:09:08.360Z,2.20
2023-04-08T05:11:35.656Z,2.22
2023-04-08T05:14:03.184Z,2.26
2023-04-08T05:16:30.789Z,2.30
2023-04-08T05:18:58.411Z,2.41
2023-04-08T05:21:26.348Z,2.56
2023-04-08T05:23:54.567Z,2.57
2023-04-08T05:26:24.611Z,2.61
2023-04-08T05:28:55.701Z,2.67
2023-04-08T05:31:23.707Z,2.62
2023-04-08T05:33:51.398Z,2.63
2023-04-08T05:36:18.674Z,2.68
2023-04-08T05:38:46.211Z,2.74
2023-04-08T05:41:13.499Z,2.80
2023-04-08T05:43:41.524Z,2.89
2023-04-08T05:46:10.464Z,2.98
2023-04-08T05:48:38.078Z,2.98
2023-04-08T05:51:05.525Z,2.99
2023-04-08T05:53:33.062Z,2.93
2023-04-08T05:56:00.244Z,3.12
2023-04-08T05:58:27.828Z,3.23
2023-04-08T06:00:57.667Z,3.31
2023-04-08T06:03:28.560Z,3.44
2023-04-08T06:05:55.927Z,3.48
2023-04-08T06:08:23.908Z,3.53
2023-04-08T06:10:53.774Z,3.60
2023-04-08T06:13:22.182Z,3.61
2023-04-08T06:15:50.008Z,3.64
2023-04-08T06:18:17.873Z,3.54
2023-04-08T06:20:45.264Z,3.50
2023-04-08T06:23:13.605Z,3.57
2023-04-08T06:25:40.959Z,3.63
2023-04-08T06:28:08.577Z,3.72
2023-04-08T06:30:35.955Z,3.84
2023-04-08T06:33:03.889Z,3.97
2023-04-08T06:35:32.266Z,4.13
2023-04-08T06:38:00.424Z,4.24
2023-04-08T06:40:27.680Z,4.38
2023-04-08T06:42:55.817Z,4.42
2023-04-08T06:45:35.643Z,4.53
2023-04-08T06:48:03.478Z,4.58
2023-04-08T06:50:32.947Z,4.62
2023-04-08T06:53:00.945Z,4.66
2023-04-08T06:55:28.230Z,4.56
2023-04-08T06:57:55.890Z,4.43
2023-04-08T07:00:23.367Z,4.25
2023-04-08T07:02:51.448Z,4.14
2023-04-08T07:05:18.685Z,4.23
2023-04-08T07:07:46.434Z,4.35
2023-04-08T07:10:16.503Z,4.48
2023-04-08T07:12:44.018Z,4.39
2023-04-08T07:15:11.525Z,4.41
2023-04-08T07:17:39.762Z,4.54
2023-04-08T07:20:07.607Z,4.84
2023-04-08T07:22:35.401Z,5.01
2023-04-08T07:25:03.272Z,5.16
2023-04-08T07:27:30.832Z,5.20
2023-04-08T07:29:58.216Z,5.14
2023-04-08T07:32:25.909Z,5.33
2023-04-08T07:34:53.299Z,5.35
2023-04-08T07:37:20.941Z,5.66
2023-04-08T07:39:48.340Z,5.94
2023-04-08T07:42:15.875Z,6.40
2023-04-08T07:44:43.079Z,6.75
2023-04-08T07:47:12.075Z,6.88
2023-04-08T07:49:39.345Z,6.85
2023-04-08T07:52:07.634Z,6.88
2023-04-08T07:54:34.928Z,6.69
2023-04-08T07:57:02.933Z,6.61
2023-04-08T07:59:31.097Z,6.55
2023-04-08T08:01:58.900Z,6.77
2023-04-08T08:04:26.573Z,6.87
2023-04-08T08:06:54.403Z,6.63
2023-04-08T08:09:22.098Z,6.32
2023-04-08T08:11:49.631Z,6.02
2023-04-08T08:14:16.865Z,5.83
2023-04-08T08:16:44.914Z,5.85
2023-04-08T08:19:14.101Z,6.00
2023-04-08T08:21:41.896Z,6.24
2023-04-08T08:24:09.135Z,6.40
2023-04-08T08:26:39.976Z,6.43
2023-04-08T08:29:09.047Z,6.49
2023-04-08T08:31:36.797Z,6.48
2023-04-08T08:38:19.467Z,6.04
2023-04-08T08:40:47.046Z,6.07
2023-04-08T08:43:14.581Z,5.93
2023-04-08T08:45:42.687Z,6.06
2023-04-08T08:48:09.944Z,6.48
2023-04-08T08:50:38.451Z,7.28
2023-04-08T08:53:05.883Z,7.68
2023-04-08T08:56:00.190Z,7.85
2023-04-08T08:58:29.554Z,7.93
2023-04-08T09:00:57.336Z,8.70
2023-04-08T09:03:28.749Z,9.62
2023-04-08T09:05:58.607Z,10.53
2023-04-08T09:08:36.263Z,11.15
2023-04-08T09:11:13.188Z,11.92
2023-04-08T09:13:41.036Z,12.02
2023-04-08T09:16:10.936Z,11.43
2023-04-08T09:18:39.441Z,10.64
2023-04-08T09:21:13.884Z,10.86
2023-04-08T09:23:50.274Z,11.13
2023-04-08T09:26:24.493Z,11.46
2023-04-08T09:28:59.550Z,11.22
2023-04-08T09:31:29.286Z,11.25
2023-04-08T09:33:58.910Z,11.45
2023-04-08T09:36:27.684Z,11.27
2023-04-08T09:38:56.333Z,10.68
2023-04-08T09:41:25.188Z,10.31
2023-04-08T09:43:54.979Z,10.45
2023-04-08T09:46:32.483Z,10.32
2023-04-08T09:49:47.246Z,10.34
2023-04-08T09:52:40.981Z,10.59
2023-04-08T09:55:13.661Z,10.26
2023-04-08T09:58:21.680Z,9.70
2023-04-08T10:00:52.691Z,9.54
2023-04-08T10:03:46.314Z,9.51
2023-04-08T10:06:13.994Z,9.35
2023-04-08T10:08:42.399Z,9.03
2023-04-08T10:11:11.784Z,8.72
2023-04-08T10:13:43.638Z,8.61
2023-04-08T10:16:32.206Z,8.51
2023-04-08T10:19:00.149Z,8.44
2023-04-08T10:21:37.788Z,8.54
2023-04-08T10:24:09.668Z,8.76
2023-04-08T10:26:39.595Z,9.08
2023-04-08T10:29:19.486Z,9.44
2023-04-08T10:31:48.186Z,9.73
2023-04-08T10:34:29.521Z,10.13
2023-04-08T10:36:59.247Z,10.32
2023-04-08T10:39:27.597Z,10.48
2023-04-08T10:41:56.256Z,10.50
2023-04-08T10:44:26.508Z,10.79
2023-04-08T10:46:55.030Z,11.25
2023-04-08T10:49:22.820Z,11.47
2023-04-08T10:51:50.279Z,11.45
2023-04-08T10:54:19.146Z,11.13
2023-04-08T10:56:52.562Z,11.07
2023-04-08T10:59:32.247Z,11.26
2023-04-08T11:02:01.497Z,11.14
2023-04-08T11:04:29.503Z,11.08
2023-04-08T11:06:56.844Z,11.16
2023-04-08T11:09:24.424Z,11.14
2023-04-08T11:11:52.711Z,10.92
2023-04-08T11:14:22.190Z,10.66
2023-04-08T11:16:49.878Z,10.72
2023-04-08T11:19:18.477Z,10.97
2023-04-08T11:21:46.018Z,11.18
2023-04-08T11:24:13.655Z,11.34
2023-04-08T11:26:42.288Z,11.45
2023-04-08T11:29:15.058Z,11.43
2023-04-08T11:31:44.330Z,11.58
2023-04-08T11:34:14.680Z,12.15
2023-04-08T11:36:42.070Z,12.53
2023-04-08T11:39:11.793Z,12.46
2023-04-08T11:41:40.755Z,12.18
2023-04-08T11:44:09.947Z,11.87
2023-04-08T11:46:41.282Z,11.60
2023-04-08T11:49:10.283Z,11.43
2023-04-08T11:51:59.463Z,10.91
2023-04-08T11:54:32.272Z,10.36
2023-04-08T11:56:59.922Z,9.78
2023-04-08T11:59:29.520Z,9.07
2023-04-08T12:01:57.598Z,8.44
2023-04-08T12:04:25.674Z,7.93
2023-04-08T12:06:53.591Z,7.76
2023-04-08T12:09:21.898Z,7.61
2023-04-08T12:11:49.171Z,7.53
2023-04-08T12:14:16.929Z,7.33
2023-04-08T12:16:44.171Z,7.15
2023-04-08T12:19:11.862Z,7.12
2023-04-08T12:21:39.602Z,7.15
2023-04-08T12:24:07.448Z,6.97
2023-04-08T12:26:34.790Z,7.08
2023-04-08T12:29:02.625Z,7.21
2023-04-08T12:31:30.138Z,7.25
2023-04-08T12:33:57.853Z,7.27
2023-04-08T12:36:25.284Z,7.52
2023-04-08T12:38:53.158Z,7.60
2023-04-08T12:41:20.568Z,7.61
2023-04-08T12:43:51.045Z,7.33
2023-04-08T12:46:18.381Z,7.37
2023-04-08T12:48:48.799Z,7.35
2023-04-08T12:51:16.988Z,7.41
2023-04-08T12:53:44.617Z,7.52
2023-04-08T12:56:12.237Z,7.49
2023-04-08T12:58:42.676Z,7.53
2023-04-08T13:01:10.023Z,7.52
2023-04-08T13:03:37.784Z,7.53
2023-04-08T13:06:05.271Z,7.65
2023-04-08T13:08:36.707Z,7.68
2023-04-08T13:11:04.099Z,7.58
2023-04-08T13:13:33.185Z,7.60
2023-04-08T13:16:00.814Z,7.57
2023-04-08T13:18:29.485Z,7.79
2023-04-08T13:20:58.329Z,7.87
2023-04-08T13:23:26.666Z,7.86
2023-04-08T13:25:54.121Z,7.75
2023-04-08T13:28:21.974Z,7.73
2023-04-08T13:30:49.228Z,7.68
2023-04-08T13:33:17.513Z,7.68
2023-04-08T13:35:47.492Z,7.86
2023-04-08T13:38:15.223Z,7.90
2023-04-08T13:40:42.615Z,8.06
2023-04-08T13:43:10.159Z,8.10
2023-04-08T13:45:37.610Z,8.14
2023-04-08T13:48:05.355Z,8.25
2023-04-08T13:50:32.877Z,8.46
2023-04-08T13:53:00.580Z,8.67
2023-04-08T13:55:27.965Z,8.76
2023-04-08T13:57:56.683Z,8.94
2023-04-08T14:00:25.651Z,9.01
2023-04-08T14:02:54.037Z,9.11
2023-04-08T14:05:21.400Z,9.16
2023-04-08T14:07:49.011Z,9.21
2023-04-08T14:10:17.681Z,9.30
2023-04-08T14:12:46.766Z,9.26
2023-04-08T14:15:13.957Z,9.19
2023-04-08T14:17:42.230Z,9.01
2023-04-08T14:20:15.698Z,8.92
2023-04-08T14:22:46.558Z,8.64
2023-04-08T14:25:16.801Z,8.44
2023-04-08T14:27:57.343Z,8.39
2023-04-08T14:30:27.260Z,8.42
2023-04-08T14:32:55.440Z,8.40
2023-04-08T14:35:23.170Z,8.33
2023-04-08T14:37:50.829Z,8.08
2023-04-08T14:40:20.559Z,7.97
2023-04-08T14:42:50.026Z,7.77
2023-04-08T14:45:17.541Z,7.62
2023-04-08T14:47:46.232Z,7.48
2023-04-08T14:50:13.523Z,7.31
2023-04-08T14:52:41.254Z,7.35
2023-04-08T14:55:09.356Z,7.26
2023-04-08T14:57:36.938Z,7.09
2023-04-08T15:00:07.890Z,7.24
2023-04-08T15:02:35.568Z,7.22
2023-04-08T15:05:05.551Z,7.18
2023-04-08T15:07:33.150Z,7.06
2023-04-08T15:10:00.717Z,7.01
2023-04-08T15:12:29.291Z,7.05
2023-04-08T15:14:56.941Z,7.05
2023-04-08T15:17:26.575Z,6.94
2023-04-08T15:19:53.932Z,6.89
2023-04-08T15:22:21.886Z,6.78
2023-04-08T15:24:49.127Z,6.58
2023-04-08T15:27:16.745Z,6.52
2023-04-08T15:29:44.075Z,6.54
2023-04-08T15:32:11.652Z,6.48
2023-04-08T15:34:41.120Z,6.45
2023-04-08T15:37:11.825Z,6.42
2023-04-08T15:39:41.765Z,6.34
2023-04-08T15:42:09.658Z,6.40
2023-04-08T15:44:39.921Z,6.38
2023-04-08T15:47:08.985Z,6.26
2023-04-08T15:49:36.361Z,6.21
2023-04-08T15:52:04.182Z,6.11
2023-04-08T15:54:34.234Z,6.09
2023-04-08T15:57:02.799Z,5.98
2023-04-08T15:59:33.417Z,5.99
2023-04-08T16:02:01.160Z,5.86
2023-04-08T16:04:29.039Z,5.89
2023-04-08T16:06:56.711Z,5.84
2023-04-08T16:09:26.949Z,5.87
2023-04-08T16:11:54.648Z,5.87
2023-04-08T16:14:22.041Z,5.87
2023-04-08T16:16:49.629Z,5.78
2023-04-08T16:19:18.498Z,5.68
2023-04-08T16:21:46.504Z,5.57
2023-04-08T16:24:14.455Z,5.65
2023-04-08T16:26:42.180Z,5.68
2023-04-08T16:29:09.406Z,5.61
2023-04-08T16:31:37.483Z,5.65
2023-04-08T16:34:05.273Z,5.44
2023-04-08T16:36:32.827Z,5.56
2023-04-08T16:39:00.067Z,5.41
2023-04-08T16:41:29.769Z,5.54
2023-04-08T16:44:02.173Z,5.50
2023-04-08T16:46:29.907Z,5.48
2023-04-08T16:48:57.097Z,5.46
2023-04-08T16:51:24.787Z,5.47
2023-04-08T16:53:52.974Z,5.37
2023-04-08T16:56:21.938Z,5.32
2023-04-08T16:58:49.210Z,5.29
2023-04-08T17:01:17.402Z,5.35
2023-04-08T17:03:44.970Z,5.23
2023-04-08T17:06:17.433Z,5.36
2023-04-08T17:08:44.843Z,5.28
2023-04-08T17:11:14.766Z,5.28
2023-04-08T17:13:43.626Z,5.18
2023-04-08T17:16:15.018Z,5.19
2023-04-08T17:18:43.241Z,5.05
2023-04-08T17:21:12.105Z,4.98
2023-04-08T17:23:39.644Z,4.96
2023-04-08T17:26:07.984Z,4.92
2023-04-08T17:28:36.082Z,4.92
2023-04-08T17:31:03.878Z,4.91
2023-04-08T17:33:31.527Z,4.90
2023-04-08T17:35:59.160Z,4.75
2023-04-08T17:38:26.548Z,4.79
2023-04-08T17:40:54.528Z,4.74
2023-04-08T17:43:21.825Z,4.70
2023-04-08T17:45:53.144Z,4.62
2023-04-08T17:48:21.009Z,4.54
2023-04-08T17:50:48.662Z,4.46
2023-04-08T17:53:16.100Z,4.53
2023-04-08T17:55:43.633Z,4.53
2023-04-08T17:58:10.949Z,4.46
2023-04-08T18:00:38.548Z,4.48
2023-04-08T18:03:06.148Z,4.59
2023-04-08T18:05:36.622Z,4.66
2023-04-08T18:08:04.208Z,4.67
2023-04-08T18:10:31.981Z,4.65
2023-04-08T18:13:11.214Z,4.62
2023-04-08T18:15:39.645Z,4.53
2023-04-08T18:18:07.329Z,4.51
2023-04-08T18:20:36.879Z,4.51
2023-04-08T18:23:04.626Z,4.41
2023-04-08T18:25:34.728Z,4.47
2023-04-08T18:28:02.464Z,4.45
2023-04-08T18:30:30.585Z,4.54
2023-04-08T18:32:58.198Z,4.35
2023-04-08T18:35:26.802Z,4.39
2023-04-08T18:37:54.098Z,4.42
2023-04-08T18:40:25.160Z,4.38
2023-04-08T18:42:52.810Z,4.33
2023-04-08T18:45:20.689Z,4.39
2023-04-08T18:47:48.184Z,4.39
2023-04-08T18:50:16.283Z,4.29
2023-04-08T18:52:43.865Z,4.37
2023-04-08T18:55:14.058Z,4.39
2023-04-08T18:57:42.111Z,4.57
2023-04-08T19:00:10.247Z,4.56
2023-04-08T19:02:37.766Z,4.57
2023-04-08T19:05:06.299Z,4.57
2023-04-08T19:07:34.487Z,4.58
2023-04-08T19:10:02.310Z,4.49
2023-04-08T19:12:29.833Z,4.46
2023-04-08T19:14:57.629Z,4.51
2023-04-08T19:17:25.071Z,4.54
2023-04-08T19:19:52.765Z,4.57
2023-04-08T19:22:20.228Z,4.48
2023-04-08T19:24:48.449Z,4.48
2023-04-08T19:27:19.216Z,4.49
2023-04-08T19:29:51.069Z,4.52
2023-04-08T19:32:19.067Z,4.46
2023-04-08T19:34:47.134Z,4.42
2023-04-08T19:37:17.386Z,4.44
2023-04-08T19:39:45.392Z,4.46
2023-04-08T19:42:13.632Z,4.55
2023-04-08T19:44:41.524Z,4.54
2023-04-08T19:47:09.074Z,4.46
2023-04-08T19:49:37.245Z,4.46
2023-04-08T19:52:04.781Z,4.55
2023-04-08T19:54:32.804Z,4.58
2023-04-08T19:57:00.977Z,4.52
2023-04-08T19:59:29.832Z,4.59
2023-04-08T20:01:59.314Z,4.60
2023-04-08T20:04:27.096Z,4.62
2023-04-08T20:06:54.443Z,4.54
2023-04-08T20:09:22.902Z,4.55
2023-04-08T20:11:50.276Z,4.57
2023-04-08T20:14:17.971Z,4.53
2023-04-08T20:16:45.581Z,4.51
2023-04-08T20:19:13.675Z,4.52
2023-04-08T20:21:42.205Z,4.59
2023-04-08T20:24:10.818Z,4.48
2023-04-08T20:26:38.082Z,4.54
2023-04-08T20:29:06.226Z,4.44
2023-04-08T20:31:34.197Z,4.50
2023-04-08T20:34:04.840Z,4.51
2023-04-08T20:36:32.887Z,4.51
2023-04-08T20:39:00.427Z,4.49
2023-04-08T20:41:27.953Z,4.43
2023-04-08T20:43:55.651Z,4.44
2023-04-08T20:46:25.182Z,4.40
2023-04-08T20:48:53.176Z,4.43
2023-04-08T20:51:20.832Z,4.36
2023-04-08T20:53:48.667Z,4.36
2023-04-08T20:56:16.091Z,4.35
2023-04-08T20:58:43.743Z,4.28
2023-04-08T21:01:11.209Z,4.26
2023-04-08T21:03:39.100Z,4.23
2023-04-08T21:06:06.464Z,4.23
2023-04-08T21:08:34.329Z,4.14
2023-04-08T21:11:01.659Z,4.10
2023-04-08T21:13:29.200Z,4.12
2023-04-08T21:15:58.703Z,4.13
2023-04-08T21:18:27.045Z,4.16
2023-04-08T21:20:54.280Z,4.19
2023-04-08T21:23:21.798Z,4.19
2023-04-08T21:25:49.239Z,4.26
2023-04-08T21:28:17.669Z,4.16
2023-04-08T21:30:45.228Z,4.21
2023-04-08T21:33:13.584Z,4.22
2023-04-08T21:35:40.855Z,4.18
2023-04-08T21:38:08.501Z,4.16
2023-04-08T21:40:36.852Z,4.13
2023-04-08T21:43:04.437Z,4.13
2023-04-08T21:45:31.839Z,4.07
2023-04-08T21:47:59.408Z,4.02
2023-04-08T21:50:26.684Z,4.01
2023-04-08T21:52:54.212Z,3.99
2023-04-08T21:55:21.640Z,3.95
2023-04-08T21:57:49.232Z,3.95
2023-04-08T22:00:19.425Z,3.94
2023-04-08T22:02:47.144Z,3.92
2023-04-08T22:05:14.562Z,3.97
2023-04-08T22:07:42.607Z,3.95
2023-04-08T22:10:10.460Z,3.95
2023-04-08T22:12:37.999Z,3.88
2023-04-08T22:15:08.708Z,3.98
2023-04-08T22:17:36.501Z,4.00
2023-04-08T22:20:04.253Z,4.04
2023-04-08T22:22:32.046Z,4.00
2023-04-08T22:24:59.409Z,3.92
2023-04-08T22:27:28.810Z,4.04
2023-04-08T22:29:56.089Z,3.98
2023-04-08T22:32:23.809Z,4.06
2023-04-08T22:34:51.265Z,4.07
2023-04-08T22:37:18.766Z,4.04
2023-04-08T22:39:48.194Z,4.00
2023-04-08T22:42:15.745Z,3.99
2023-04-08T22:44:43.037Z,3.91
2023-04-08T22:47:11.131Z,4.04
2023-04-08T22:49:42.837Z,4.10
2023-04-08T22:52:18.177Z,4.07
2023-04-08T22:54:47.755Z,4.04
2023-04-08T22:57:15.255Z,4.04
2023-04-08T22:59:42.574Z,4.01
2023-04-08T23:02:10.185Z,3.95
2023-04-08T23:04:37.558Z,3.91
2023-04-08T23:07:06.952Z,3.74
2023-04-08T23:09:36.038Z,3.88
2023-04-08T23:12:06.381Z,3.95
2023-04-08T23:14:33.588Z,3.80
2023-04-08T23:17:01.350Z,3.82
2023-04-08T23:19:29.402Z,3.92
2023-04-08T23:21:57.068Z,3.90
2023-04-08T23:24:24.371Z,3.83
2023-04-08T23:26:51.854Z,3.85
2023-04-08T23:29:19.170Z,3.75
2023-04-08T23:31:46.687Z,3.79
2023-04-08T23:34:13.871Z,3.74
2023-04-08T23:36:41.438Z,3.69
2023-04-08T23:39:08.753Z,3.68
2023-04-08T23:41:36.554Z,3.66
2023-04-08T23:44:03.873Z,3.60
2023-04-08T23:46:31.846Z,3.65
2023-04-08T23:48:59.154Z,3.63
2023-04-08T23:51:28.047Z,3.65
2023-04-08T23:53:58.146Z,3.64
2023-04-08T23:56:26.395Z,3.64
2023-04-08T23:58:54.017Z,3.73
